Hubley, Pennsylvania
Current Conditions -  °F | °C
As of 2:40 PM on Thursday 27 Nov 2014 (Local Time) from KMUI Reporting Station
Broken Clouds Broken Clouds  
Wind Chill: 32°   Ceiling: 3000
Heat Index: 36°   Visibility: 10mi
Dew Point: 27°   Wind: 5mph
Humidity: 70%   Direction: NA
Pressure: 30.04"   Gusts: NA
Location:  40.6468°N, 76.5662°W
Report Text: KMUI 271940Z AUTO VRB04KT 10SM BKN030 BKN065 02/M03 A3004 RMK AO2 $
Loading
Personal Weather Stations






























Interactive Weather Map New forecast layout! Learn more

10-Day Weather Forecast

Advertisements
Track Severe Weather on mobile